sensor_id;sensor_type;location;lat;lon;timestamp;temperature;humidity
29255;DHT22;16277;48.890;2.306;2023-11-22T00:12:36;14.00;99.90
29255;DHT22;16277;48.890;2.306;2023-11-22T00:27:41;14.50;99.90
29255;DHT22;16277;48.890;2.306;2023-11-22T00:42:46;14.60;99.90
29255;DHT22;16277;48.890;2.306;2023-11-22T00:57:50;14.10;99.90
29255;DHT22;16277;48.890;2.306;2023-11-22T01:12:55;14.50;99.90
29255;DHT22;16277;48.890;2.306;2023-11-22T01:27:59;14.10;99.90
29255;DHT22;16277;48.890;2.306;2023-11-22T01:43:05;13.50;99.90
29255;DHT22;16277;48.890;2.306;2023-11-22T01:58:10;13.80;99.90
29255;DHT22;16277;48.890;2.306;2023-11-22T02:13:15;13.50;99.90
29255;DHT22;16277;48.890;2.306;2023-11-22T02:28:21;14.00;99.90
29255;DHT22;16277;48.890;2.306;2023-11-22T02:43:25;13.60;99.90
29255;DHT22;16277;48.890;2.306;2023-11-22T02:58:30;14.20;99.90
29255;DHT22;16277;48.890;2.306;2023-11-22T03:13:34;14.00;99.90
29255;DHT22;16277;48.890;2.306;2023-11-22T03:28:39;14.20;99.90
29255;DHT22;16277;48.890;2.306;2023-11-22T03:44:02;14.30;99.90
29255;DHT22;16277;48.890;2.306;2023-11-22T03:59:07;12.80;99.90
29255;DHT22;16277;48.890;2.306;2023-11-22T04:14:12;13.10;99.90
29255;DHT22;16277;48.890;2.306;2023-11-22T04:29:16;13.10;99.90
29255;DHT22;16277;48.890;2.306;2023-11-22T04:44:21;13.10;99.90
29255;DHT22;16277;48.890;2.306;2023-11-22T04:59:25;12.60;99.90
29255;DHT22;16277;48.890;2.306;2023-11-22T05:14:30;12.40;99.90
29255;DHT22;16277;48.890;2.306;2023-11-22T05:29:36;12.40;99.90
29255;DHT22;16277;48.890;2.306;2023-11-22T05:44:52;11.60;99.90
29255;DHT22;16277;48.890;2.306;2023-11-22T05:59:57;12.60;99.90
29255;DHT22;16277;48.890;2.306;2023-11-22T06:30:20;12.60;99.90
29255;DHT22;16277;48.890;2.306;2023-11-22T06:45:25;12.40;99.90
29255;DHT22;16277;48.890;2.306;2023-11-22T07:00:30;11.80;99.90
29255;DHT22;16277;48.890;2.306;2023-11-22T07:15:36;11.80;99.90
29255;DHT22;16277;48.890;2.306;2023-11-22T07:30:59;12.20;99.90
29255;DHT22;16277;48.890;2.306;2023-11-22T07:46:07;10.90;99.90
29255;DHT22;16277;48.890;2.306;2023-11-22T08:01:16;11.10;99.90
29255;DHT22;16277;48.890;2.306;2023-11-22T08:16:21;13.00;99.90
29255;DHT22;16277;48.890;2.306;2023-11-22T08:31:26;12.90;99.90
29255;DHT22;16277;48.890;2.306;2023-11-22T08:46:31;13.30;99.90
29255;DHT22;16277;48.890;2.306;2023-11-22T09:01:35;12.30;99.90
29255;DHT22;16277;48.890;2.306;2023-11-22T09:16:40;13.40;99.90
29255;DHT22;16277;48.890;2.306;2023-11-22T09:31:44;13.30;99.90
29255;DHT22;16277;48.890;2.306;2023-11-22T09:46:50;14.00;99.90
29255;DHT22;16277;48.890;2.306;2023-11-22T10:01:56;14.60;99.90
29255;DHT22;16277;48.890;2.306;2023-11-22T10:17:03;14.80;99.90
29255;DHT22;16277;48.890;2.306;2023-11-22T10:32:27;15.00;99.90
29255;DHT22;16277;48.890;2.306;2023-11-22T10:47:34;15.20;99.90
29255;DHT22;16277;48.890;2.306;2023-11-22T11:02:45;15.50;99.90
29255;DHT22;16277;48.890;2.306;2023-11-22T11:17:52;15.30;99.90
29255;DHT22;16277;48.890;2.306;2023-11-22T11:32:57;14.00;99.90
29255;DHT22;16277;48.890;2.306;2023-11-22T11:48:02;14.70;99.90
29255;DHT22;16277;48.890;2.306;2023-11-22T12:03:07;15.40;99.90
29255;DHT22;16277;48.890;2.306;2023-11-22T12:18:13;14.80;99.90
29255;DHT22;16277;48.890;2.306;2023-11-22T12:33:19;15.30;99.70
29255;DHT22;16277;48.890;2.306;2023-11-22T12:48:25;15.40;97.30
29255;DHT22;16277;48.890;2.306;2023-11-22T13:03:33;15.00;96.10
29255;DHT22;16277;48.890;2.306;2023-11-22T13:18:38;13.90;97.00
29255;DHT22;16277;48.890;2.306;2023-11-22T13:33:42;14.70;97.50
29255;DHT22;16277;48.890;2.306;2023-11-22T13:48:47;15.30;96.60
29255;DHT22;16277;48.890;2.306;2023-11-22T14:03:51;15.20;96.00
29255;DHT22;16277;48.890;2.306;2023-11-22T14:18:56;14.20;96.60
29255;DHT22;16277;48.890;2.306;2023-11-22T14:34:00;14.80;94.40
29255;DHT22;16277;48.890;2.306;2023-11-22T14:49:09;14.80;95.60
29255;DHT22;16277;48.890;2.306;2023-11-22T15:04:13;14.40;96.70
29255;DHT22;16277;48.890;2.306;2023-11-22T15:19:18;14.20;97.50
29255;DHT22;16277;48.890;2.306;2023-11-22T15:34:43;14.50;97.20
29255;DHT22;16277;48.890;2.306;2023-11-22T15:49:50;13.50;98.50
29255;DHT22;16277;48.890;2.306;2023-11-22T16:04:56;14.00;98.60
29255;DHT22;16277;48.890;2.306;2023-11-22T16:20:01;14.00;98.10
29255;DHT22;16277;48.890;2.306;2023-11-22T16:35:11;14.80;98.20
29255;DHT22;16277;48.890;2.306;2023-11-22T16:50:19;13.80;99.40
29255;DHT22;16277;48.890;2.306;2023-11-22T17:05:23;13.90;99.90
29255;DHT22;16277;48.890;2.306;2023-11-22T17:20:28;14.10;99.90
29255;DHT22;16277;48.890;2.306;2023-11-22T17:35:32;14.70;99.60
29255;DHT22;16277;48.890;2.306;2023-11-22T17:50:37;14.80;99.30
29255;DHT22;16277;48.890;2.306;2023-11-22T18:05:45;14.80;99.40
29255;DHT22;16277;48.890;2.306;2023-11-22T18:20:51;14.40;99.20
29255;DHT22;16277;48.890;2.306;2023-11-22T18:35:55;14.20;99.90
29255;DHT22;16277;48.890;2.306;2023-11-22T18:51:00;13.50;99.90
29255;DHT22;16277;48.890;2.306;2023-11-22T19:06:07;13.50;99.90
29255;DHT22;16277;48.890;2.306;2023-11-22T19:21:17;14.00;99.90
29255;DHT22;16277;48.890;2.306;2023-11-22T19:36:22;13.50;99.90
29255;DHT22;16277;48.890;2.306;2023-11-22T19:51:26;13.90;99.90
29255;DHT22;16277;48.890;2.306;2023-11-22T20:06:31;13.40;99.90
29255;DHT22;16277;48.890;2.306;2023-11-22T20:21:35;14.30;99.90
29255;DHT22;16277;48.890;2.306;2023-11-22T20:36:45;14.50;99.90
29255;DHT22;16277;48.890;2.306;2023-11-22T20:52:09;14.50;99.90
29255;DHT22;16277;48.890;2.306;2023-11-22T21:07:13;13.70;99.90
29255;DHT22;16277;48.890;2.306;2023-11-22T21:22:19;13.60;99.90
29255;DHT22;16277;48.890;2.306;2023-11-22T21:37:24;13.30;99.90
29255;DHT22;16277;48.890;2.306;2023-11-22T21:52:47;13.40;99.90
29255;DHT22;16277;48.890;2.306;2023-11-22T22:07:52;13.30;99.90
29255;DHT22;16277;48.890;2.306;2023-11-22T22:22:56;13.50;99.90
29255;DHT22;16277;48.890;2.306;2023-11-22T22:38:01;12.90;99.90
29255;DHT22;16277;48.890;2.306;2023-11-22T22:53:07;12.90;99.90
29255;DHT22;16277;48.890;2.306;2023-11-22T23:08:12;13.40;99.90
29255;DHT22;16277;48.890;2.306;2023-11-22T23:23:16;13.40;99.90
29255;DHT22;16277;48.890;2.306;2023-11-22T23:38:21;13.60;99.90
29255;DHT22;16277;48.890;2.306;2023-11-22T23:53:26;13.40;99.90
